createdAt,value
2022-12-23T00:01:05.670Z,97230.63
2022-12-23T00:03:34.609Z,97232.69
2022-12-23T00:06:02.256Z,97222.41
2022-12-23T00:08:29.930Z,97218.72
2022-12-23T00:10:57.718Z,97229.66
2022-12-23T00:13:43.502Z,97234.56
2022-12-23T00:16:14.497Z,97234.00
2022-12-23T00:18:43.050Z,97225.28
2022-12-23T00:21:14.463Z,97234.72
2022-12-23T00:23:46.297Z,97234.44
2022-12-23T00:26:18.263Z,97230.66
2022-12-23T00:28:46.381Z,97223.63
2022-12-23T00:31:15.023Z,97228.81
2022-12-23T00:33:46.745Z,97223.63
2022-12-23T00:36:17.797Z,97228.66
2022-12-23T00:39:04.850Z,97223.00
2022-12-23T00:41:51.524Z,97229.75
2022-12-23T00:44:19.387Z,97242.50
2022-12-23T00:46:46.811Z,97240.66
2022-12-23T00:49:35.802Z,97250.66
2022-12-23T00:52:05.266Z,97239.94
2022-12-23T00:54:33.017Z,97240.84
2022-12-23T00:57:01.415Z,97238.59
2022-12-23T00:59:29.091Z,97229.22
2022-12-23T01:02:15.267Z,97233.25
2022-12-23T01:05:01.579Z,97228.44
2022-12-23T01:07:28.853Z,97221.25
2022-12-23T01:09:56.361Z,97232.22
2022-12-23T01:12:23.745Z,97222.72
2022-12-23T01:14:51.249Z,97237.31
2022-12-23T01:17:19.245Z,97224.88
2022-12-23T01:19:46.798Z,97227.09
2022-12-23T01:22:14.009Z,97220.97
2022-12-23T01:24:41.564Z,97235.47
2022-12-23T01:27:08.951Z,97232.69
2022-12-23T01:29:36.517Z,97239.56
2022-12-23T01:32:04.082Z,97227.91
2022-12-23T01:34:36.669Z,97229.56
2022-12-23T01:37:05.812Z,97223.75
2022-12-23T01:39:33.633Z,97222.91
2022-12-23T01:42:19.736Z,97228.09
2022-12-23T01:45:03.098Z,97234.56
2022-12-23T01:47:48.478Z,97247.50
2022-12-23T01:50:28.228Z,97246.38
2022-12-23T01:53:07.984Z,97243.25
2022-12-23T01:56:09.143Z,97241.75
2022-12-23T01:58:47.998Z,97256.56
2022-12-23T02:01:34.123Z,97255.91
2022-12-23T02:04:08.170Z,97251.47
2022-12-23T02:06:58.642Z,97253.97
2022-12-23T02:09:33.244Z,97264.88
2022-12-23T02:12:45.815Z,97269.03
2022-12-23T02:15:55.384Z,97260.78
2022-12-23T02:18:42.224Z,97267.06
2022-12-23T02:21:49.631Z,97255.34
2022-12-23T02:25:07.470Z,97256.91
2022-12-23T02:28:15.776Z,97273.00
2022-12-23T02:31:21.715Z,97260.63
2022-12-23T02:34:01.415Z,97258.97
2022-12-23T02:37:08.936Z,97257.84
2022-12-23T02:39:44.715Z,97249.59
2022-12-23T02:42:20.841Z,97262.38
2022-12-23T02:45:00.563Z,97253.31
2022-12-23T02:47:43.601Z,97248.22
2022-12-23T02:50:20.200Z,97251.38
2022-12-23T02:52:51.041Z,97247.59
2022-12-23T02:55:29.182Z,97253.88
2022-12-23T02:58:02.028Z,97240.69
2022-12-23T03:00:31.002Z,97245.31
2022-12-23T03:02:59.944Z,97260.16
2022-12-23T03:05:35.180Z,97242.97
2022-12-23T03:08:07.958Z,97243.44
2022-12-23T03:10:53.561Z,97245.56
2022-12-23T03:13:52.938Z,97244.00
2022-12-23T03:16:57.914Z,97255.44
2022-12-23T03:19:39.778Z,97226.81
2022-12-23T03:22:33.136Z,97232.81
2022-12-23T03:25:31.985Z,97228.19
2022-12-23T03:28:08.559Z,97235.56
2022-12-23T03:30:42.403Z,97240.66
2022-12-23T03:33:24.703Z,97242.31
2022-12-23T03:36:06.547Z,97232.16
2022-12-23T03:38:37.875Z,97235.41
2022-12-23T03:41:37.123Z,97239.28
2022-12-23T03:44:16.285Z,97237.16
2022-12-23T03:47:09.791Z,97248.97
2022-12-23T03:50:03.210Z,97238.00
2022-12-23T03:52:59.891Z,97230.03
2022-12-23T03:55:39.077Z,97235.88
2022-12-23T03:58:31.184Z,97234.22
2022-12-23T04:01:14.380Z,97232.06
2022-12-23T04:04:11.706Z,97229.97
2022-12-23T04:06:55.113Z,97243.16
2022-12-23T04:09:26.919Z,97235.13
2022-12-23T04:11:55.642Z,97234.00
2022-12-23T04:14:23.666Z,97230.69
2022-12-23T04:16:58.417Z,97228.94
2022-12-23T04:19:26.172Z,97221.53
2022-12-23T04:21:57.669Z,97213.88
2022-12-23T04:24:25.202Z,97206.56
2022-12-23T04:26:52.417Z,97205.91
2022-12-23T04:29:19.971Z,97205.34
2022-12-23T04:31:47.268Z,97204.44
2022-12-23T04:34:14.978Z,97201.88
2022-12-23T04:36:42.207Z,97193.53
2022-12-23T04:39:09.997Z,97198.72
2022-12-23T04:41:37.216Z,97186.06
2022-12-23T04:44:04.950Z,97192.81
2022-12-23T04:46:32.293Z,97186.63
2022-12-23T04:48:59.829Z,97202.97
2022-12-23T04:51:27.151Z,97199.28
2022-12-23T04:53:54.675Z,97199.19
2022-12-23T04:56:22.026Z,97193.56
2022-12-23T04:58:49.610Z,97199.72
2022-12-23T05:01:16.885Z,97188.19
2022-12-23T05:03:44.476Z,97192.44
2022-12-23T05:06:11.757Z,97183.00
2022-12-23T05:08:39.274Z,97190.56
2022-12-23T05:11:06.557Z,97186.53
2022-12-23T05:13:34.054Z,97184.31
2022-12-23T05:16:01.331Z,97191.06
2022-12-23T05:18:28.893Z,97189.88
2022-12-23T05:20:56.155Z,97200.00
2022-12-23T05:23:23.718Z,97194.84
2022-12-23T05:25:53.720Z,97202.41
2022-12-23T05:28:24.590Z,97201.09
2022-12-23T05:31:00.141Z,97195.75
2022-12-23T05:33:28.981Z,97198.16
2022-12-23T05:35:56.964Z,97198.91
2022-12-23T05:38:25.095Z,97195.66
2022-12-23T05:40:52.545Z,97197.16
2022-12-23T05:43:20.476Z,97197.31
2022-12-23T05:45:49.062Z,97196.41
2022-12-23T05:48:17.232Z,97197.16
2022-12-23T05:50:44.423Z,97200.94
2022-12-23T05:53:12.040Z,97186.13
2022-12-23T05:55:39.308Z,97183.19
2022-12-23T05:58:06.895Z,97188.38
2022-12-23T06:00:34.607Z,97193.41
2022-12-23T06:03:02.314Z,97193.81
2022-12-23T06:05:29.771Z,97193.66
2022-12-23T06:07:57.292Z,97189.72
2022-12-23T06:10:24.574Z,97182.13
2022-12-23T06:12:52.072Z,97187.69
2022-12-23T06:15:19.345Z,97183.63
2022-12-23T06:17:46.920Z,97194.94
2022-12-23T06:20:20.464Z,97191.47
2022-12-23T06:22:48.718Z,97194.16
2022-12-23T06:25:16.224Z,97195.06
2022-12-23T06:27:43.943Z,97188.47
2022-12-23T06:30:13.131Z,97186.59
2022-12-23T06:32:41.190Z,97185.09
2022-12-23T06:35:09.718Z,97189.25
2022-12-23T06:37:37.295Z,97187.28
2022-12-23T06:40:05.376Z,97187.66
2022-12-23T06:42:32.958Z,97184.38
2022-12-23T06:45:00.204Z,97183.69
2022-12-23T06:47:27.737Z,97187.47
2022-12-23T06:49:55.077Z,97184.53
2022-12-23T06:52:23.185Z,97190.59
2022-12-23T06:54:50.576Z,97197.34
2022-12-23T06:57:18.124Z,97189.59
2022-12-23T06:59:45.345Z,97201.84
2022-12-23T07:02:13.057Z,97196.81
2022-12-23T07:04:40.368Z,97192.47
2022-12-23T07:07:07.925Z,97200.41
2022-12-23T07:09:35.183Z,97201.91
2022-12-23T07:12:04.002Z,97205.34
2022-12-23T07:14:31.363Z,97196.47
2022-12-23T07:16:59.061Z,97196.97
2022-12-23T07:19:26.309Z,97187.31
2022-12-23T07:21:53.810Z,97191.19
2022-12-23T07:24:21.087Z,97199.84
2022-12-23T07:26:48.574Z,97194.88
2022-12-23T07:29:15.833Z,97200.84
2022-12-23T07:31:43.383Z,97205.63
2022-12-23T07:34:10.720Z,97208.00
2022-12-23T07:36:38.310Z,97212.84
2022-12-23T07:39:05.926Z,97216.38
2022-12-23T07:41:33.506Z,97218.75
2022-12-23T07:44:00.678Z,97216.00
2022-12-23T07:46:28.387Z,97211.53
2022-12-23T07:48:55.685Z,97210.28
2022-12-23T07:51:23.257Z,97211.41
2022-12-23T07:53:51.506Z,97214.56
2022-12-23T07:56:19.687Z,97205.63
2022-12-23T07:58:52.353Z,97203.38
2022-12-23T08:01:20.922Z,97202.75
2022-12-23T08:03:48.622Z,97210.63
2022-12-23T08:06:17.276Z,97205.03
2022-12-23T08:08:46.413Z,97209.06
2022-12-23T08:11:16.542Z,97195.16
2022-12-23T08:13:45.923Z,97205.88
2022-12-23T08:16:13.468Z,97211.38
2022-12-23T08:18:42.181Z,97201.50
2022-12-23T08:21:19.571Z,97186.25
2022-12-23T08:23:48.369Z,97198.59
2022-12-23T08:26:22.445Z,97180.72
2022-12-23T08:28:53.612Z,97175.66
2022-12-23T08:31:26.628Z,97177.19
2022-12-23T08:33:57.458Z,97176.38
2022-12-23T08:36:36.176Z,97174.16
2022-12-23T08:39:08.845Z,97186.31
2022-12-23T08:41:41.888Z,97171.06
2022-12-23T08:44:10.767Z,97173.91
2022-12-23T08:46:39.291Z,97174.38
2022-12-23T08:49:08.109Z,97178.16
2022-12-23T08:51:37.003Z,97178.69
2022-12-23T08:54:05.468Z,97182.31
2022-12-23T08:56:39.170Z,97178.00
2022-12-23T08:59:18.014Z,97161.78
2022-12-23T09:01:47.597Z,97166.28
2022-12-23T09:04:15.668Z,97165.69
2022-12-23T09:06:44.320Z,97159.56
2022-12-23T09:09:14.478Z,97149.16
2022-12-23T09:11:42.851Z,97145.38
2022-12-23T09:14:11.707Z,97145.94
2022-12-23T09:16:40.047Z,97139.06
2022-12-23T09:19:08.038Z,97142.63
2022-12-23T09:21:36.041Z,97140.34
2022-12-23T09:24:03.494Z,97134.84
2022-12-23T09:26:31.890Z,97127.19
2022-12-23T09:28:59.871Z,97128.47
2022-12-23T09:31:32.633Z,97124.53
2022-12-23T09:34:03.445Z,97110.06
2022-12-23T09:36:31.143Z,97111.28
2022-12-23T09:38:59.643Z,97110.72
2022-12-23T09:42:05.545Z,97115.41
2022-12-23T09:45:40.095Z,97103.75
2022-12-23T09:48:17.603Z,97095.44
2022-12-23T09:50:46.728Z,97104.59
2022-12-23T09:53:26.908Z,97111.16
2022-12-23T09:56:22.764Z,97106.75
2022-12-23T09:59:11.078Z,97114.47
2022-12-23T10:01:50.895Z,97101.44
2022-12-23T10:05:15.289Z,97109.75
2022-12-23T10:07:44.936Z,97089.88
2022-12-23T10:10:33.006Z,97086.66
2022-12-23T10:13:04.707Z,97079.66
2022-12-23T10:15:54.604Z,97082.66
2022-12-23T10:19:00.091Z,97084.63
2022-12-23T10:21:46.730Z,97088.97
2022-12-23T10:24:29.464Z,97083.09
2022-12-23T10:27:04.312Z,97080.75
2022-12-23T10:29:33.820Z,97086.28
2022-12-23T10:32:31.609Z,97093.50
2022-12-23T10:35:38.719Z,97083.59
2022-12-23T10:38:42.694Z,97082.44
2022-12-23T10:41:38.367Z,97086.34
2022-12-23T10:44:40.091Z,97085.22
2022-12-23T10:47:49.823Z,97093.44
2022-12-23T10:50:48.537Z,97085.31
2022-12-23T10:53:44.367Z,97089.31
2022-12-23T10:56:13.724Z,97077.81
2022-12-23T10:58:52.905Z,97075.91
2022-12-23T11:01:26.462Z,97073.31
2022-12-23T11:04:13.874Z,97072.72
2022-12-23T11:07:10.795Z,97090.38
2022-12-23T11:09:54.905Z,97074.03
2022-12-23T11:12:42.627Z,97086.47
2022-12-23T11:15:39.590Z,97107.66
2022-12-23T11:18:13.213Z,97099.59
2022-12-23T11:21:06.284Z,97088.72
2022-12-23T11:23:36.630Z,97085.06
2022-12-23T11:26:09.903Z,97088.84
2022-12-23T11:28:50.819Z,97091.56
2022-12-23T11:31:28.639Z,97088.72
2022-12-23T11:34:02.041Z,97085.41
2022-12-23T11:36:32.326Z,97084.69
2022-12-23T11:39:23.790Z,97075.72
2022-12-23T11:42:12.019Z,97089.19
2022-12-23T11:44:45.741Z,97087.41
2022-12-23T11:47:38.941Z,97088.72
2022-12-23T11:50:36.850Z,97081.38
2022-12-23T11:53:22.242Z,97089.66
2022-12-23T11:56:14.912Z,97082.94
2022-12-23T11:59:02.980Z,97092.13
2022-12-23T12:01:30.800Z,97082.44
2022-12-23T12:04:06.332Z,97078.31
2022-12-23T12:06:34.986Z,97073.94
2022-12-23T12:09:06.795Z,97078.44
2022-12-23T12:11:46.712Z,97082.09
2022-12-23T12:14:32.726Z,97073.72
2022-12-23T12:17:17.842Z,97074.03
2022-12-23T12:20:10.725Z,97081.59
2022-12-23T12:22:49.561Z,97079.94
2022-12-23T12:26:09.622Z,97081.03
2022-12-23T12:28:47.933Z,97088.97
2022-12-23T12:31:20.660Z,97077.25
2022-12-23T12:33:56.979Z,97082.91
2022-12-23T12:36:50.911Z,97078.31
2022-12-23T12:39:55.025Z,97088.59
2022-12-23T12:42:36.845Z,97084.06
2022-12-23T12:45:39.945Z,97087.38
2022-12-23T12:48:43.703Z,97076.63
2022-12-23T12:51:43.408Z,97078.03
2022-12-23T12:54:32.283Z,97085.50
2022-12-23T12:57:02.341Z,97088.25
2022-12-23T12:59:39.037Z,97091.88
2022-12-23T13:02:27.736Z,97097.94
2022-12-23T13:05:26.373Z,97127.16
2022-12-23T13:08:14.337Z,97103.38
2022-12-23T13:11:12.984Z,97118.16
2022-12-23T13:13:59.262Z,97131.53
2022-12-23T13:17:04.879Z,97107.16
2022-12-23T13:19:48.580Z,97101.94
2022-12-23T13:22:34.271Z,97101.72
2022-12-23T13:25:16.641Z,97123.47
2022-12-23T13:28:32.606Z,97131.88
2022-12-23T13:31:47.928Z,97113.34
2022-12-23T13:35:19.736Z,97136.59
2022-12-23T13:38:37.691Z,97129.72
2022-12-23T13:41:31.551Z,97131.50
2022-12-23T13:44:05.580Z,97136.09
2022-12-23T13:47:06.224Z,97154.66
2022-12-23T13:49:36.555Z,97147.19
2022-12-23T13:52:43.898Z,97130.44
2022-12-23T13:55:32.957Z,97133.47
2022-12-23T13:58:02.949Z,97149.28
2022-12-23T14:00:34.024Z,97139.31
2022-12-23T14:03:01.266Z,97122.84
2022-12-23T14:05:36.474Z,97134.09
2022-12-23T14:08:19.573Z,97132.75
2022-12-23T14:11:11.924Z,97141.22
2022-12-23T14:13:51.100Z,97146.50
2022-12-23T14:16:46.036Z,97145.41
2022-12-23T14:19:19.043Z,97132.13
2022-12-23T14:22:13.117Z,97137.53
2022-12-23T14:24:59.142Z,97140.16
2022-12-23T14:27:59.908Z,97155.00
2022-12-23T14:30:46.834Z,97155.06
2022-12-23T14:33:37.491Z,97153.22
2022-12-23T14:36:26.895Z,97159.22
2022-12-23T14:39:12.869Z,97156.31
2022-12-23T14:41:50.580Z,97164.59
2022-12-23T14:44:21.122Z,97154.66
2022-12-23T14:46:48.408Z,97144.47
2022-12-23T14:49:40.877Z,97162.78
2022-12-23T14:52:44.721Z,97143.06
2022-12-23T14:55:41.945Z,97144.38
2022-12-23T14:58:18.110Z,97148.56
2022-12-23T15:00:55.788Z,97153.22
2022-12-23T15:03:23.322Z,97151.16
2022-12-23T15:05:51.390Z,97159.59
2022-12-23T15:08:37.840Z,97152.09
2022-12-23T15:11:09.557Z,97144.19
2022-12-23T15:13:38.087Z,97147.84
2022-12-23T15:16:06.166Z,97153.69
2022-12-23T15:18:33.560Z,97159.94
2022-12-23T15:21:09.917Z,97152.47
2022-12-23T15:23:37.198Z,97161.53
2022-12-23T15:26:05.008Z,97167.97
2022-12-23T15:28:38.740Z,97168.03
2022-12-23T15:31:23.589Z,97162.78
2022-12-23T15:34:02.763Z,97166.16
2022-12-23T15:36:36.920Z,97166.50
2022-12-23T15:39:17.221Z,97150.81
2022-12-23T15:41:47.514Z,97159.00
2022-12-23T15:44:41.402Z,97160.66
2022-12-23T15:47:43.150Z,97173.13
2022-12-23T15:50:15.568Z,97151.09
2022-12-23T15:52:47.659Z,97164.06
2022-12-23T15:55:31.335Z,97165.72
2022-12-23T15:58:03.691Z,97159.81
2022-12-23T16:00:55.502Z,97164.31
2022-12-23T16:03:37.720Z,97154.22
2022-12-23T16:06:34.500Z,97151.75
2022-12-23T16:09:36.123Z,97156.00
2022-12-23T16:12:26.618Z,97157.66
2022-12-23T16:14:58.077Z,97156.81
2022-12-23T16:17:36.222Z,97155.13
2022-12-23T16:20:26.854Z,97166.56
2022-12-23T16:23:00.984Z,97149.38
2022-12-23T16:25:33.507Z,97150.97
2022-12-23T16:28:03.986Z,97154.22
2022-12-23T16:30:36.202Z,97154.53
2022-12-23T16:33:24.494Z,97145.38
2022-12-23T16:35:56.036Z,97147.16
2022-12-23T16:38:26.569Z,97143.53
2022-12-23T16:40:57.120Z,97137.50
2022-12-23T16:43:25.550Z,97145.00
2022-12-23T16:45:56.934Z,97149.84
2022-12-23T16:48:40.632Z,97136.38
2022-12-23T16:51:14.016Z,97133.38
2022-12-23T16:53:41.333Z,97129.25
2022-12-23T16:56:20.964Z,97123.22
2022-12-23T16:58:48.428Z,97121.88
2022-12-23T17:01:24.976Z,97135.47
2022-12-23T17:03:53.175Z,97132.75
2022-12-23T17:06:22.204Z,97131.09
2022-12-23T17:08:50.187Z,97131.63
2022-12-23T17:11:40.109Z,97133.22
2022-12-23T17:14:15.826Z,97144.25
2022-12-23T17:16:45.407Z,97138.06
2022-12-23T17:19:12.918Z,97133.28
2022-12-23T17:21:48.701Z,97136.09
2022-12-23T17:24:27.646Z,97139.72
2022-12-23T17:26:59.115Z,97142.69
2022-12-23T17:29:26.555Z,97156.75
2022-12-23T17:31:54.413Z,97141.88
2022-12-23T17:34:24.921Z,97162.66
2022-12-23T17:36:53.259Z,97158.41
2022-12-23T17:39:22.260Z,97160.88
2022-12-23T17:41:50.220Z,97161.72
2022-12-23T17:44:18.465Z,97169.94
2022-12-23T17:46:47.267Z,97161.41
2022-12-23T17:49:14.890Z,97160.34
2022-12-23T17:51:43.423Z,97166.19
2022-12-23T17:54:24.013Z,97160.97
2022-12-23T17:56:51.947Z,97169.28
2022-12-23T17:59:20.788Z,97168.84
2022-12-23T18:01:48.758Z,97170.06
2022-12-23T18:04:16.290Z,97161.19
2022-12-23T18:06:43.824Z,97165.97
2022-12-23T18:09:11.080Z,97172.03
2022-12-23T18:11:45.649Z,97167.63
2022-12-23T18:14:29.269Z,97180.19
2022-12-23T18:16:56.820Z,97169.03
2022-12-23T18:19:24.694Z,97175.41
2022-12-23T18:21:52.960Z,97172.81
2022-12-23T18:24:20.295Z,97168.03
2022-12-23T18:26:47.906Z,97165.25
2022-12-23T18:29:15.146Z,97164.38
2022-12-23T18:31:51.354Z,97181.31
2022-12-23T18:34:20.321Z,97173.44
2022-12-23T18:36:48.531Z,97178.81
2022-12-23T18:39:16.085Z,97171.03
2022-12-23T18:41:45.473Z,97172.72
2022-12-23T18:44:21.270Z,97180.28
2022-12-23T18:46:50.175Z,97184.31
2022-12-23T18:49:17.689Z,97161.25
2022-12-23T18:51:45.812Z,97163.47
2022-12-23T18:54:16.267Z,97175.81
2022-12-23T18:56:44.887Z,97174.16
2022-12-23T18:59:29.355Z,97162.00
2022-12-23T19:01:58.333Z,97172.59
2022-12-23T19:04:27.121Z,97164.03
2022-12-23T19:06:56.749Z,97168.03
2022-12-23T19:09:24.863Z,97162.59
2022-12-23T19:11:54.384Z,97169.88
2022-12-23T19:14:21.993Z,97171.09
2022-12-23T19:16:52.369Z,97169.97
2022-12-23T19:19:21.609Z,97163.84
2022-12-23T19:21:49.474Z,97170.69
2022-12-23T19:24:16.816Z,97161.34
2022-12-23T19:26:44.504Z,97161.69
2022-12-23T19:29:11.941Z,97168.53
2022-12-23T19:31:40.373Z,97170.25
2022-12-23T19:34:12.866Z,97183.00
2022-12-23T19:36:43.362Z,97158.41
2022-12-23T19:39:16.612Z,97153.56
2022-12-23T19:41:45.373Z,97154.16
2022-12-23T19:44:12.738Z,97171.50
2022-12-23T19:46:40.465Z,97163.72
2022-12-23T19:49:07.832Z,97161.94
2022-12-23T19:51:35.579Z,97180.56
2022-12-23T19:54:03.268Z,97181.59
2022-12-23T19:56:32.534Z,97176.81
2022-12-23T19:58:59.799Z,97168.94
2022-12-23T20:01:27.910Z,97178.59
2022-12-23T20:03:56.868Z,97170.63
2022-12-23T20:06:34.009Z,97168.97
2022-12-23T20:09:04.439Z,97162.06
2022-12-23T20:11:41.979Z,97147.31
2022-12-23T20:14:10.189Z,97142.78
2022-12-23T20:16:39.626Z,97139.66
2022-12-23T20:19:08.095Z,97128.66
2022-12-23T20:21:40.287Z,97122.41
2022-12-23T20:24:08.160Z,97117.56
2022-12-23T20:26:35.792Z,97123.19
2022-12-23T20:29:04.041Z,97117.66
2022-12-23T20:31:35.597Z,97104.59
2022-12-23T20:34:05.248Z,97110.09
2022-12-23T20:36:36.181Z,97108.38
2022-12-23T20:39:04.278Z,97104.47
2022-12-23T20:41:32.611Z,97111.16
2022-12-23T20:44:33.040Z,97111.34
2022-12-23T20:46:48.235Z,97106.81
2022-12-23T20:49:15.653Z,97109.31
2022-12-23T20:51:43.210Z,97111.78
2022-12-23T20:54:10.481Z,97098.81
2022-12-23T20:56:38.095Z,97102.25
2022-12-23T20:59:05.423Z,97098.94
2022-12-23T21:01:38.097Z,97091.97
2022-12-23T21:04:13.047Z,97089.75
2022-12-23T21:06:40.892Z,97090.16
2022-12-23T21:09:12.302Z,97084.19
2022-12-23T21:11:43.735Z,97084.31
2022-12-23T21:14:12.319Z,97078.66
2022-12-23T21:16:40.674Z,97092.31
2022-12-23T21:19:15.519Z,97080.81
2022-12-23T21:21:43.223Z,97086.63
2022-12-23T21:24:11.452Z,97084.25
2022-12-23T21:26:39.839Z,97082.25
2022-12-23T21:29:10.387Z,97090.56
2022-12-23T21:31:41.221Z,97077.44
2022-12-23T21:34:09.281Z,97079.09
2022-12-23T21:36:38.971Z,97089.06
2022-12-23T21:39:08.426Z,97084.09
2022-12-23T21:41:38.832Z,97081.97
2022-12-23T21:44:06.840Z,97071.03
2022-12-23T21:46:43.598Z,97073.25
2022-12-23T21:49:11.535Z,97078.94
2022-12-23T21:51:41.030Z,97066.78
2022-12-23T21:54:10.916Z,97063.50
2022-12-23T21:56:41.075Z,97064.00
2022-12-23T21:59:15.285Z,97067.34
2022-12-23T22:01:43.776Z,97067.78
2022-12-23T22:04:12.049Z,97068.16
2022-12-23T22:06:45.958Z,97056.75
2022-12-23T22:09:18.287Z,97064.34
2022-12-23T22:11:47.155Z,97057.78
2022-12-23T22:14:18.207Z,97058.44
2022-12-23T22:16:46.048Z,97054.53
2022-12-23T22:19:13.672Z,97053.84
2022-12-23T22:21:42.729Z,97061.75
2022-12-23T22:24:10.378Z,97051.91
2022-12-23T22:26:39.648Z,97053.41
2022-12-23T22:29:07.299Z,97053.03
2022-12-23T22:31:46.219Z,97048.31
2022-12-23T22:34:17.587Z,97053.38
2022-12-23T22:36:45.522Z,97050.94
2022-12-23T22:39:20.092Z,97046.63
2022-12-23T22:41:50.228Z,97055.59
2022-12-23T22:44:18.848Z,97055.41
2022-12-23T22:46:46.789Z,97051.22
2022-12-23T22:49:15.849Z,97045.53
2022-12-23T22:51:44.248Z,97044.25
2022-12-23T22:54:11.900Z,97043.97
2022-12-23T22:56:39.713Z,97042.56
2022-12-23T22:59:07.053Z,97046.06
2022-12-23T23:01:36.476Z,97047.56
2022-12-23T23:04:04.752Z,97039.72
2022-12-23T23:06:38.017Z,97040.53
2022-12-23T23:09:10.394Z,97043.91
2022-12-23T23:11:38.386Z,97049.44
2022-12-23T23:14:06.493Z,97051.00
2022-12-23T23:16:34.247Z,97037.91
2022-12-23T23:19:02.727Z,97047.34
2022-12-23T23:21:30.383Z,97044.50
2022-12-23T23:23:57.713Z,97042.31
2022-12-23T23:26:27.467Z,97038.06
2022-12-23T23:28:56.409Z,97025.59
2022-12-23T23:31:42.071Z,97033.47
2022-12-23T23:34:10.210Z,97023.53
2022-12-23T23:36:37.872Z,97020.31
2022-12-23T23:39:05.209Z,97016.97
2022-12-23T23:41:32.850Z,97006.38
2022-12-23T23:44:00.601Z,96995.47
2022-12-23T23:46:28.149Z,96997.47
2022-12-23T23:48:55.445Z,96982.56
2022-12-23T23:51:23.897Z,96982.63
2022-12-23T23:53:51.202Z,96981.81
2022-12-23T23:56:24.769Z,96975.06
2022-12-23T23:58:52.956Z,96978.31
